Carrizo Springs, Texas
Current Conditions -  °F | °C
As of 8:35 PM on Wednesday 22 Oct 2014 (Local Time) from KCZT Reporting Station
Overcast Overcast  
Wind Chill: 77°   Ceiling: 7000
Heat Index: 79°   Visibility: 10mi
Dew Point: 59°   Wind: 3mph
Humidity: 54%   Direction: 20°NNE
Pressure: 30.02"   Gusts: NA
Location:  28.52°N, 99.86°W
Report Text: KCZT 230135Z AUTO 02003KT 10SM OVC070 25/15 A3002 RMK AO2
Loading
Personal Weather Stations






























Interactive Weather Map
Tropical Storm Tracking
New forecast layout! Learn more

10-Day Weather Forecast

Advertisements
Track Severe Weather on mobile